Palmyra, Indiana
Current Conditions -  °F | °C
As of 3:56 AM on Thursday 23 Oct 2014 (Local Time) from KSDF Reporting Station
Few Clouds Few Clouds  
Wind Chill: 44°   Ceiling: Unl
Heat Index: 44°   Visibility: 10mi
Dew Point: 39°   Wind: 3mph
Humidity: 82%   Direction: NA
Pressure: 30.26"   Gusts: NA
Location:  38.41°N, 86.11°W
Report Text: KSDF 230756Z VRB03KT 10SM FEW250 07/04 A3026 RMK AO2 SLP245 T00670039
Loading
Personal Weather Stations






























Interactive Weather Map
Tropical Storm Tracking
New forecast layout! Learn more

10-Day Weather Forecast

Advertisements
Track Severe Weather on mobile